Time;durP1;ratioP1;P1;durP2;ratioP2;P2;SDS_P1;SDS_P2;PMS_P1;PMS_P2;Temp;Humidity;BMP_temperature;BMP_pressure;BME280_temperature;BME280_humidity;BME280_pressure;Samples;Min_cycle;Max_cycle;Signal;HPM_P1;HPM_P2
2023/02/10 00:02:01;;;;;;;4.60;3.97;;;15.90;64.50;;;;;;5046259;28;20045;-15
2023/02/10 00:04:27;;;;;;;3.90;3.70;;;15.90;64.50;;;;;;5046085;28;20044;-24
2023/02/10 00:06:52;;;;;;;4.30;3.90;;;15.80;64.40;;;;;;5046139;28;20143;-15
2023/02/10 00:09:18;;;;;;;4.43;4.13;;;15.70;64.70;;;;;;5045756;28;20048;-16
2023/02/10 00:11:56;;;;;;;4.88;4.47;;;15.70;64.70;;;;;;5051991;28;20140;-14
2023/02/10 00:14:21;;;;;;;3.85;3.55;;;15.70;64.80;;;;;;5053715;28;20093;-14
2023/02/10 00:16:52;;;;;;;3.70;3.40;;;15.70;64.70;;;;;;5048980;28;20045;-15
2023/02/10 00:19:21;;;;;;;3.85;3.65;;;15.70;64.70;;;;;;5068498;28;20454;-16
2023/02/10 00:21:46;;;;;;;3.97;3.78;;;15.70;64.60;;;;;;5052624;28;20125;-15
2023/02/10 00:24:12;;;;;;;4.10;3.83;;;15.70;64.70;;;;;;5052393;28;20116;-21
2023/02/10 00:26:37;;;;;;;3.72;3.53;;;15.70;64.60;;;;;;5052605;28;20049;-14
2023/02/10 00:29:03;;;;;;;3.97;3.67;;;15.70;64.70;;;;;;5051308;28;20549;-15
2023/02/10 00:31:29;;;;;;;3.78;3.58;;;15.70;64.70;;;;;;5052948;28;20048;-15
2023/02/10 00:33:54;;;;;;;5.35;3.67;;;15.70;64.50;;;;;;5049716;28;20087;-15
2023/02/10 00:36:21;;;;;;;4.22;3.90;;;15.70;64.40;;;;;;5052453;28;20059;-15
2023/02/10 00:38:47;;;;;;;4.22;3.92;;;15.70;64.60;;;;;;5052838;28;20615;-14
2023/02/10 00:41:14;;;;;;;4.00;3.70;;;15.60;64.80;;;;;;5052331;28;20049;-18
2023/02/10 00:43:40;;;;;;;4.43;4.13;;;15.60;64.80;;;;;;5052843;28;20036;-14
2023/02/10 00:46:06;;;;;;;4.57;4.28;;;15.70;64.70;;;;;;5052463;28;20057;-14
2023/02/10 00:48:31;;;;;;;4.00;3.70;;;15.70;64.50;;;;;;5051642;28;20048;-14
2023/02/10 00:50:57;;;;;;;4.30;4.00;;;15.60;64.50;;;;;;5052930;28;20186;-16
2023/02/10 00:53:23;;;;;;;4.10;3.80;;;15.60;64.70;;;;;;5043620;28;20654;-14
2023/02/10 00:55:48;;;;;;;4.40;4.10;;;15.60;64.80;;;;;;5052405;28;20102;-16
2023/02/10 00:58:14;;;;;;;5.28;3.75;;;15.60;64.70;;;;;;5050982;28;20062;-15
2023/02/10 01:00:39;;;;;;;4.05;3.75;;;15.60;64.60;;;;;;5051711;28;20074;-12
2023/02/10 01:03:05;;;;;;;4.10;3.80;;;15.70;64.40;;;;;;5052984;28;20060;-14
2023/02/10 01:05:30;;;;;;;3.63;3.42;;;15.60;64.30;;;;;;5052882;28;20106;-14
2023/02/10 01:07:56;;;;;;;4.30;4.10;;;15.80;64.20;;;;;;5051369;28;20498;-15
2023/02/10 01:10:22;;;;;;;4.10;3.75;;;15.70;64.10;;;;;;5052704;28;20532;-15
2023/02/10 01:12:47;;;;;;;3.83;3.63;;;15.60;64.50;;;;;;5051705;28;20086;-14
2023/02/10 01:15:13;;;;;;;4.82;4.47;;;15.70;64.40;;;;;;5051702;28;20739;-16
2023/02/10 01:17:38;;;;;;;3.78;3.58;;;15.60;64.30;;;;;;5052664;28;20033;-16
2023/02/10 01:20:04;;;;;;;4.00;3.70;;;15.70;64.10;;;;;;5050265;28;20044;-15
2023/02/10 01:22:32;;;;;;;4.25;4.05;;;15.70;64.00;;;;;;5048977;28;20079;-15
2023/02/10 01:24:58;;;;;;;3.75;3.55;;;15.70;63.80;;;;;;5061061;28;20449;-16
2023/02/10 01:27:23;;;;;;;4.43;4.13;;;15.70;64.00;;;;;;5048293;28;20049;-14
2023/02/10 01:29:49;;;;;;;3.63;3.42;;;15.70;63.80;;;;;;5046863;28;20086;-14
2023/02/10 01:32:14;;;;;;;4.03;3.83;;;15.80;63.70;;;;;;5048827;28;20500;-14
2023/02/10 01:34:40;;;;;;;3.90;3.70;;;15.80;63.60;;;;;;5048244;28;20167;-17
2023/02/10 01:37:05;;;;;;;4.22;3.92;;;15.80;63.60;;;;;;5048007;28;20044;-18
2023/02/10 01:39:31;;;;;;;3.55;3.25;;;15.70;63.80;;;;;;5047773;28;20043;-14
2023/02/10 01:41:57;;;;;;;3.83;3.63;;;15.70;63.90;;;;;;5048506;28;20279;-15
2023/02/10 01:44:22;;;;;;;3.50;3.30;;;15.70;64.00;;;;;;5050164;28;20063;-14
2023/02/10 01:46:48;;;;;;;3.92;3.63;;;15.70;64.00;;;;;;5046048;28;20393;-14
2023/02/10 01:49:16;;;;;;;3.85;3.60;;;15.70;64.60;;;;;;5048219;28;20079;-13
2023/02/10 01:51:46;;;;;;;3.70;3.50;;;15.70;63.90;;;;;;5047758;28;20114;-14
2023/02/10 01:54:14;;;;;;;4.30;4.00;;;15.70;63.90;;;;;;5046797;28;20414;-15
2023/02/10 01:56:40;;;;;;;3.75;3.55;;;15.70;63.70;;;;;;5048179;28;20044;-14
2023/02/10 01:59:06;;;;;;;3.50;3.30;;;15.60;64.60;;;;;;5048188;28;20106;-16
2023/02/10 02:01:31;;;;;;;4.40;4.10;;;15.60;64.60;;;;;;5063344;28;20053;-13
2023/02/10 02:03:57;;;;;;;4.13;3.92;;;15.70;63.80;;;;;;5046040;28;20052;-22
2023/02/10 02:06:23;;;;;;;3.92;3.63;;;15.70;63.70;;;;;;5050596;28;20106;-14
2023/02/10 02:08:48;;;;;;;4.07;3.83;;;15.70;63.60;;;;;;5047838;28;20045;-16
2023/02/10 02:11:41;;;;;;;3.92;3.63;;;15.70;63.70;;;;;;5046788;28;20040;-15
2023/02/10 02:14:26;;;;;;;3.88;3.58;;;15.70;63.60;;;;;;5061462;28;20131;-14
2023/02/10 02:16:57;;;;;;;4.53;4.25;;;15.80;63.60;;;;;;5056237;28;20036;-18
2023/02/10 02:19:46;;;;;;;4.25;4.05;;;15.70;63.60;;;;;;5052778;28;20528;-14
2023/02/10 02:22:33;;;;;;;4.03;3.72;;;15.70;63.60;;;;;;5036923;28;20465;-16
2023/02/10 02:25:52;;;;;;;4.00;3.70;;;15.80;63.50;;;;;;5045775;28;20044;-15
2023/02/10 02:28:42;;;;;;;5.13;4.82;;;15.60;63.80;;;;;;5004594;28;20208;-15
2023/02/10 02:31:11;;;;;;;3.75;3.53;;;15.60;63.50;;;;;;5009051;28;20298;-15
2023/02/10 02:33:44;;;;;;;3.97;3.78;;;15.60;63.80;;;;;;5006615;28;20185;-15
2023/02/10 02:36:22;;;;;;;3.80;3.60;;;15.60;63.70;;;;;;5010664;28;20045;-15
2023/02/10 02:38:47;;;;;;;3.67;3.47;;;15.70;63.70;;;;;;5007749;28;20088;-20
2023/02/10 02:41:21;;;;;;;4.28;3.97;;;15.60;63.60;;;;;;5011642;28;20050;-15
2023/02/10 02:43:46;;;;;;;3.70;3.50;;;15.60;63.70;;;;;;5000215;28;20069;-14
2023/02/10 02:46:39;;;;;;;3.83;3.63;;;15.70;63.70;;;;;;5010428;28;20518;-15
2023/02/10 02:49:40;;;;;;;4.22;4.03;;;15.60;63.70;;;;;;5008095;28;20053;-16
2023/02/10 02:52:10;;;;;;;3.72;3.53;;;15.60;63.60;;;;;;4995791;28;20526;-15
2023/02/10 02:54:50;;;;;;;3.90;3.70;;;15.60;63.70;;;;;;5012030;28;20052;-14
2023/02/10 02:57:24;;;;;;;4.03;3.83;;;15.60;63.80;;;;;;5005204;28;20053;-22
2023/02/10 02:59:51;;;;;;;3.55;3.35;;;15.60;64.00;;;;;;5009444;28;20045;-15
2023/02/10 03:02:19;;;;;;;3.75;3.50;;;15.50;63.90;;;;;;5016332;28;20037;-19
2023/02/10 03:04:44;;;;;;;4.05;3.80;;;15.50;63.90;;;;;;5058517;28;20478;-19
2023/02/10 03:07:10;;;;;;;3.83;3.63;;;15.60;63.80;;;;;;5048463;28;20040;-21
2023/02/10 03:09:36;;;;;;;4.07;3.88;;;15.60;63.70;;;;;;5046179;28;20048;-16
2023/02/10 03:12:01;;;;;;;3.42;3.22;;;15.60;63.80;;;;;;5050386;28;20040;-15
2023/02/10 03:14:27;;;;;;;4.30;3.90;;;15.60;63.80;;;;;;5047937;28;20151;-15
2023/02/10 03:16:52;;;;;;;3.85;3.58;;;15.60;63.90;;;;;;5046321;28;20066;-18
2023/02/10 03:19:18;;;;;;;4.00;3.80;;;15.60;63.90;;;;;;5047157;28;20130;-15
2023/02/10 03:21:44;;;;;;;4.28;4.00;;;15.60;63.80;;;;;;5046087;28;20044;-13
2023/02/10 03:24:09;;;;;;;3.30;3.10;;;15.50;63.80;;;;;;5044771;28;20308;-14
2023/02/10 03:26:36;;;;;;;4.20;3.90;;;15.60;63.90;;;;;;5046697;28;20029;-16
2023/02/10 03:29:01;;;;;;;4.28;4.07;;;15.60;63.80;;;;;;5046317;28;20048;-16
2023/02/10 03:31:27;;;;;;;3.70;3.50;;;15.50;63.80;;;;;;5046190;28;20402;-15
2023/02/10 03:33:52;;;;;;;4.30;4.07;;;15.50;64.00;;;;;;5045024;28;20502;-14
2023/02/10 03:36:18;;;;;;;4.30;4.00;;;15.50;64.00;;;;;;5046322;28;20036;-21
2023/02/10 03:38:45;;;;;;;3.70;3.50;;;15.50;63.90;;;;;;5046853;28;20041;-18
2023/02/10 03:41:11;;;;;;;3.67;3.38;;;15.60;63.80;;;;;;5045776;28;20659;-15
2023/02/10 03:43:36;;;;;;;3.95;3.75;;;15.60;63.80;;;;;;5061445;28;20090;-14
2023/02/10 03:46:02;;;;;;;3.67;3.47;;;15.60;63.80;;;;;;5044333;28;20028;-16
2023/02/10 03:48:31;;;;;;;3.50;3.30;;;15.50;63.80;;;;;;5060022;28;20143;-15
2023/02/10 03:51:01;;;;;;;3.40;3.20;;;15.50;64.00;;;;;;5046449;28;20032;-14
2023/02/10 03:53:26;;;;;;;3.20;3.00;;;15.50;63.80;;;;;;5045819;28;20043;-15
2023/02/10 03:55:52;;;;;;;3.50;3.30;;;15.50;63.80;;;;;;5044470;28;21051;-15
2023/02/10 03:58:18;;;;;;;3.50;3.30;;;15.50;63.80;;;;;;5046096;28;20064;-14
2023/02/10 04:00:43;;;;;;;3.85;3.58;;;15.50;63.80;;;;;;5045558;28;20514;-17
2023/02/10 04:03:09;;;;;;;4.13;3.83;;;15.50;63.90;;;;;;5046164;28;20048;-14
2023/02/10 04:05:34;;;;;;;3.42;3.22;;;15.50;63.80;;;;;;5046962;28;20558;-18
2023/02/10 04:08:00;;;;;;;3.42;3.22;;;15.50;63.80;;;;;;5045357;28;20028;-15
2023/02/10 04:10:26;;;;;;;3.58;3.28;;;15.50;63.70;;;;;;5044638;28;20048;-16
2023/02/10 04:12:52;;;;;;;3.80;3.50;;;15.50;63.80;;;;;;5043385;28;20103;-14
2023/02/10 04:15:17;;;;;;;3.10;2.95;;;15.50;63.80;;;;;;5045472;28;20538;-14
2023/02/10 04:17:43;;;;;;;3.83;3.60;;;15.50;63.80;;;;;;5046332;28;20053;-14
2023/02/10 04:20:09;;;;;;;3.80;3.60;;;15.60;63.70;;;;;;5045999;28;20032;-16
2023/02/10 04:22:34;;;;;;;3.40;3.20;;;15.50;63.70;;;;;;5046181;28;20079;-18
2023/02/10 04:25:00;;;;;;;4.15;3.95;;;15.40;63.80;;;;;;5045213;28;20465;-15
2023/02/10 04:27:25;;;;;;;4.18;3.92;;;15.50;63.90;;;;;;5044921;28;20044;-14
2023/02/10 04:29:51;;;;;;;3.63;3.42;;;15.40;63.80;;;;;;5045120;28;20532;-16
2023/02/10 04:32:16;;;;;;;3.38;3.17;;;15.40;63.80;;;;;;5045425;28;20395;-14
2023/02/10 04:34:42;;;;;;;3.75;3.55;;;15.50;63.80;;;;;;5044562;28;20143;-15
2023/02/10 04:37:08;;;;;;;3.63;3.42;;;15.50;63.60;;;;;;5044088;28;20535;-15
2023/02/10 04:39:33;;;;;;;3.35;3.15;;;15.50;63.80;;;;;;5047583;28;20147;-18
2023/02/10 04:41:59;;;;;;;3.97;3.70;;;15.40;63.80;;;;;;5043510;28;20064;-15
2023/02/10 04:44:25;;;;;;;3.65;3.45;;;15.40;63.70;;;;;;5043480;28;21789;-20
2023/02/10 04:46:50;;;;;;;3.90;3.60;;;15.50;63.70;;;;;;5046101;28;20044;-14
2023/02/10 04:49:16;;;;;;;3.35;3.15;;;15.50;63.80;;;;;;5045495;28;20048;-16
2023/02/10 04:51:42;;;;;;;3.53;3.33;;;15.50;63.80;;;;;;5045909;28;20049;-16
2023/02/10 04:54:08;;;;;;;3.72;3.42;;;15.40;63.80;;;;;;5043681;28;20153;-17
2023/02/10 04:56:33;;;;;;;3.25;3.05;;;15.40;63.70;;;;;;5047585;28;20048;-21
2023/02/10 04:58:59;;;;;;;3.70;3.50;;;15.50;63.80;;;;;;5048967;28;20028;-15
2023/02/10 05:01:24;;;;;;;3.95;3.65;;;15.40;63.80;;;;;;5049541;28;20041;-15
2023/02/10 05:03:50;;;;;;;3.85;3.65;;;15.50;63.80;;;;;;5051780;28;20041;-18
2023/02/10 05:06:16;;;;;;;3.50;3.30;;;15.50;63.80;;;;;;5050239;28;20044;-17
2023/02/10 05:08:41;;;;;;;2.97;2.88;;;15.40;63.80;;;;;;5049844;28;20060;-17
2023/02/10 05:11:11;;;;;;;3.50;3.30;;;15.40;63.70;;;;;;5049185;28;20045;-14
2023/02/10 05:13:37;;;;;;;3.80;3.60;;;15.40;63.70;;;;;;5051074;28;20770;-17
2023/02/10 05:16:03;;;;;;;3.53;3.33;;;15.40;63.70;;;;;;5048992;28;20025;-15
2023/02/10 05:18:30;;;;;;;3.55;3.35;;;15.40;63.70;;;;;;5049309;28;20066;-18
2023/02/10 05:20:56;;;;;;;3.13;2.92;;;15.40;63.60;;;;;;5051083;28;20045;-20
2023/02/10 05:23:21;;;;;;;2.75;2.65;;;15.50;63.60;;;;;;5050329;28;20549;-14
2023/02/10 05:25:47;;;;;;;3.40;3.20;;;15.40;63.50;;;;;;5050141;28;20127;-14
2023/02/10 05:28:12;;;;;;;3.40;3.22;;;15.40;63.60;;;;;;5049793;28;20032;-17
2023/02/10 05:30:38;;;;;;;2.70;2.60;;;15.40;63.50;;;;;;5049470;28;20072;-25
2023/02/10 05:33:03;;;;;;;3.60;3.40;;;15.50;63.60;;;;;;5048965;28;20916;-14
2023/02/10 05:35:29;;;;;;;3.40;3.20;;;15.40;63.50;;;;;;5052801;28;20040;-16
2023/02/10 05:37:55;;;;;;;3.60;3.40;;;15.40;63.60;;;;;;5048068;28;20044;-14
2023/02/10 05:40:20;;;;;;;3.53;3.33;;;15.40;63.60;;;;;;5047974;28;20135;-15
2023/02/10 05:42:46;;;;;;;3.28;3.17;;;15.40;64.70;;;;;;5049685;28;20032;-14
2023/02/10 05:45:11;;;;;;;3.60;3.40;;;15.30;63.80;;;;;;5048039;28;20052;-14
2023/02/10 05:47:37;;;;;;;2.92;2.83;;;15.40;63.80;;;;;;5049541;28;22794;-15
2023/02/10 05:50:03;;;;;;;3.47;3.28;;;15.40;63.80;;;;;;5043909;28;20056;-15
2023/02/10 05:52:28;;;;;;;3.45;3.25;;;15.40;63.80;;;;;;5049087;28;20171;-14
2023/02/10 05:54:54;;;;;;;3.33;3.10;;;15.40;63.60;;;;;;5047695;28;20044;-15
2023/02/10 05:57:19;;;;;;;3.13;2.92;;;15.40;63.50;;;;;;5048542;28;20387;-20
2023/02/10 05:59:45;;;;;;;3.50;3.30;;;15.40;63.80;;;;;;5049675;28;20045;-19
2023/02/10 06:02:10;;;;;;;3.38;3.17;;;15.40;63.80;;;;;;5046466;28;20045;-19
2023/02/10 06:04:36;;;;;;;3.00;2.80;;;15.40;63.80;;;;;;5046445;28;20041;-20
2023/02/10 06:07:02;;;;;;;3.00;2.90;;;15.40;63.90;;;;;;5046559;28;20514;-14
2023/02/10 06:09:27;;;;;;;2.65;2.55;;;15.40;63.80;;;;;;5049207;28;20136;-16
2023/02/10 06:11:53;;;;;;;3.25;3.08;;;15.40;63.70;;;;;;5049045;28;20486;-17
2023/02/10 06:14:19;;;;;;;3.55;3.35;;;15.40;63.60;;;;;;5048004;28;20090;-17
2023/02/10 06:16:44;;;;;;;3.05;2.85;;;15.40;63.90;;;;;;5048202;28;20040;-16
2023/02/10 06:19:10;;;;;;;3.80;2.70;;;15.20;65.70;;;;;;5046585;28;20040;-16
2023/02/10 06:21:36;;;;;;;4.57;4.03;;;15.20;66.60;;;;;;5047449;28;20098;-15
2023/02/10 06:24:01;;;;;;;4.10;3.20;;;15.30;66.40;;;;;;5045953;28;20043;-14
2023/02/10 06:26:27;;;;;;;3.55;3.20;;;15.60;66.40;;;;;;5047999;28;20040;-14
2023/02/10 06:28:53;;;;;;;3.97;3.67;;;15.70;65.90;;;;;;5046605;28;20044;-13
2023/02/10 06:31:19;;;;;;;3.42;3.13;;;15.60;66.10;;;;;;5048150;28;20036;-14
2023/02/10 06:33:45;;;;;;;5.72;3.90;;;15.50;66.00;;;;;;5048170;28;20478;-14
2023/02/10 06:36:10;;;;;;;5.32;3.97;;;15.30;66.50;;;;;;5047533;28;22250;-14
2023/02/10 06:38:37;;;;;;;5.07;3.83;;;15.40;66.80;;;;;;5047130;28;20039;-14
2023/02/10 06:41:03;;;;;;;6.13;3.75;;;15.40;67.80;;;;;;5044279;28;20040;-14
2023/02/10 06:43:28;;;;;;;3.97;3.50;;;15.30;67.30;;;;;;5045619;28;20069;-15
2023/02/10 06:45:54;;;;;;;4.95;4.60;;;15.30;67.40;;;;;;5047183;28;20120;-16
2023/02/10 06:48:20;;;;;;;4.82;4.40;;;15.20;68.10;;;;;;5045743;28;20056;-13
2023/02/10 06:50:45;;;;;;;10.27;4.60;;;15.20;68.10;;;;;;5047195;28;20127;-14
2023/02/10 06:53:11;;;;;;;7.60;4.65;;;15.20;68.20;;;;;;5046150;28;20518;-15
2023/02/10 06:55:36;;;;;;;10.50;4.45;;;15.20;68.10;;;;;;5046291;28;20045;-17
2023/02/10 06:58:02;;;;;;;5.50;3.58;;;15.20;68.10;;;;;;5046058;28;20742;-15
2023/02/10 07:00:28;;;;;;;4.50;4.10;;;15.20;68.10;;;;;;5046143;28;20097;-14
2023/02/10 07:02:54;;;;;;;4.75;3.88;;;15.20;67.70;;;;;;5046645;28;20041;-14
2023/02/10 07:05:19;;;;;;;4.53;3.60;;;15.20;67.60;;;;;;5046744;28;20043;-21
2023/02/10 07:07:45;;;;;;;7.03;3.28;;;15.20;67.30;;;;;;5046923;28;20144;-16
2023/02/10 07:10:11;;;;;;;4.60;4.20;;;15.20;66.80;;;;;;5044441;28;20037;-14
2023/02/10 07:12:37;;;;;;;7.60;5.47;;;15.30;67.20;;;;;;5047546;28;20037;-25
2023/02/10 07:15:03;;;;;;;7.65;6.18;;;15.40;67.10;;;;;;5045456;28;20461;-14
2023/02/10 07:17:28;;;;;;;7.80;7.10;;;15.40;67.10;;;;;;5047694;28;20876;-15
2023/02/10 07:19:54;;;;;;;8.18;7.43;;;15.30;67.50;;;;;;5045190;28;20041;-17
2023/02/10 07:22:20;;;;;;;11.13;7.15;;;15.30;67.10;;;;;;5044009;28;20163;-14
2023/02/10 07:24:46;;;;;;;7.05;6.35;;;15.30;67.30;;;;;;5040057;28;20033;-21
2023/02/10 07:27:11;;;;;;;7.55;6.70;;;15.40;67.90;;;;;;5046223;28;20043;-14
2023/02/10 07:29:37;;;;;;;7.47;6.53;;;15.40;66.90;;;;;;5044616;28;20060;-15
2023/02/10 07:32:03;;;;;;;6.63;5.72;;;15.30;66.90;;;;;;5046090;28;20158;-16
2023/02/10 07:34:30;;;;;;;6.40;5.80;;;15.30;66.70;;;;;;5043117;28;20052;-16
2023/02/10 07:36:56;;;;;;;7.30;6.18;;;15.30;66.60;;;;;;5045795;28;20068;-15
2023/02/10 07:39:23;;;;;;;5.88;5.38;;;15.30;66.40;;;;;;5046790;28;20099;-19
2023/02/10 07:41:48;;;;;;;5.40;4.95;;;15.40;66.50;;;;;;5047118;28;20036;-16
2023/02/10 07:44:14;;;;;;;5.70;5.20;;;15.40;66.30;;;;;;5045442;28;20045;-18
2023/02/10 07:46:40;;;;;;;5.90;5.38;;;15.50;66.00;;;;;;5047620;28;20052;-15
2023/02/10 07:49:05;;;;;;;5.50;5.10;;;15.60;65.60;;;;;;5046017;28;20051;-15
2023/02/10 07:51:31;;;;;;;5.72;5.22;;;15.60;65.30;;;;;;5046382;28;20024;-16
2023/02/10 07:53:56;;;;;;;6.28;5.28;;;15.50;65.60;;;;;;5045968;28;20580;-15
2023/02/10 07:56:22;;;;;;;5.07;4.78;;;15.60;65.70;;;;;;5046041;28;20068;-16
2023/02/10 07:58:47;;;;;;;5.70;5.30;;;15.50;65.90;;;;;;5043108;28;20044;-14
2023/02/10 08:01:13;;;;;;;5.13;4.72;;;15.60;65.80;;;;;;5045232;28;20127;-26
2023/02/10 08:03:39;;;;;;;5.75;5.20;;;15.50;66.00;;;;;;5045604;28;20540;-16
2023/02/10 08:06:04;;;;;;;5.47;5.05;;;15.40;66.50;;;;;;5046634;28;20033;-15
2023/02/10 08:08:30;;;;;;;5.22;4.82;;;15.40;66.40;;;;;;5047123;28;20064;-13
2023/02/10 08:10:56;;;;;;;5.20;4.80;;;15.40;66.40;;;;;;5047104;28;20253;-13
2023/02/10 08:13:22;;;;;;;5.22;4.90;;;15.40;66.20;;;;;;5047434;28;20123;-22
2023/02/10 08:15:47;;;;;;;6.15;5.65;;;15.40;66.30;;;;;;5046608;28;20084;-12
2023/02/10 08:18:13;;;;;;;5.20;4.70;;;15.40;66.30;;;;;;5047309;28;20533;-13
2023/02/10 08:20:40;;;;;;;4.80;4.50;;;15.40;66.20;;;;;;5047170;28;20080;-12
2023/02/10 08:23:05;;;;;;;5.15;4.75;;;15.40;66.30;;;;;;5047214;28;20072;-13
2023/02/10 08:25:31;;;;;;;5.53;5.13;;;15.40;66.20;;;;;;5044442;28;20128;-12
2023/02/10 08:27:57;;;;;;;5.70;5.20;;;15.40;66.10;;;;;;5047131;28;20049;-12
2023/02/10 08:30:23;;;;;;;4.82;4.40;;;15.40;66.10;;;;;;5050042;28;20052;-13
2023/02/10 08:32:49;;;;;;;5.32;4.82;;;15.40;65.80;;;;;;5050199;28;20509;-12
2023/02/10 08:35:14;;;;;;;4.80;4.50;;;15.40;65.90;;;;;;5051641;28;20064;-15
2023/02/10 08:37:40;;;;;;;6.22;4.60;;;15.40;66.00;;;;;;5050377;28;20074;-13
2023/02/10 08:40:06;;;;;;;4.78;4.47;;;15.40;65.90;;;;;;5050259;28;20041;-12
2023/02/10 08:42:32;;;;;;;4.80;4.50;;;15.40;65.90;;;;;;5049904;28;20055;-13
2023/02/10 08:44:58;;;;;;;5.18;4.80;;;15.40;65.90;;;;;;5050690;28;20044;-12
2023/02/10 08:47:23;;;;;;;5.03;4.63;;;15.40;65.70;;;;;;5054375;28;20044;-13
2023/02/10 08:49:49;;;;;;;4.80;4.40;;;15.40;65.80;;;;;;5050161;28;20175;-14
2023/02/10 08:52:15;;;;;;;4.63;4.32;;;15.40;65.70;;;;;;5049259;28;20052;-12
2023/02/10 08:54:41;;;;;;;4.30;4.03;;;15.40;65.80;;;;;;5051057;28;20048;-18
2023/02/10 08:57:06;;;;;;;4.20;4.00;;;15.40;65.70;;;;;;5050516;28;20061;-15
2023/02/10 08:59:32;;;;;;;4.57;4.38;;;15.40;65.70;;;;;;5050218;28;20049;-12
2023/02/10 09:01:58;;;;;;;4.80;4.50;;;15.40;65.40;;;;;;5049780;28;20323;-14
2023/02/10 09:04:23;;;;;;;4.78;4.38;;;15.50;65.50;;;;;;5051165;28;20208;-13
2023/02/10 09:06:49;;;;;;;4.57;4.28;;;15.40;65.30;;;;;;5049878;28;20833;-13
2023/02/10 09:09:16;;;;;;;4.20;3.90;;;15.40;65.30;;;;;;5050059;28;20048;-20
2023/02/10 09:11:42;;;;;;;4.40;4.10;;;15.40;65.40;;;;;;5050167;28;20098;-13
2023/02/10 09:14:07;;;;;;;4.40;4.10;;;15.40;65.40;;;;;;5050659;28;20542;-12
2023/02/10 09:16:34;;;;;;;4.53;4.13;;;15.40;65.40;;;;;;5049341;28;20045;-14
2023/02/10 09:18:59;;;;;;;4.10;3.80;;;15.40;65.30;;;;;;5052052;28;20064;-12
2023/02/10 09:21:25;;;;;;;4.63;4.32;;;15.40;65.30;;;;;;5049241;28;20044;-12
2023/02/10 09:23:51;;;;;;;3.70;3.40;;;15.40;65.20;;;;;;5050112;28;20068;-12
2023/02/10 09:26:17;;;;;;;3.90;3.60;;;15.40;65.20;;;;;;5049617;28;20117;-13
2023/02/10 09:28:42;;;;;;;3.80;3.60;;;15.40;65.20;;;;;;5048952;28;20143;-12
2023/02/10 09:31:08;;;;;;;3.90;3.67;;;15.40;65.20;;;;;;5049336;28;20091;-14
2023/02/10 09:33:35;;;;;;;3.70;3.40;;;15.40;65.10;;;;;;5048313;28;20053;-12
2023/02/10 09:36:06;;;;;;;3.42;3.22;;;15.40;65.10;;;;;;5049721;28;20104;-14
2023/02/10 09:38:33;;;;;;;4.60;4.20;;;15.40;65.00;;;;;;5049363;28;20051;-17
2023/02/10 09:41:06;;;;;;;4.13;3.83;;;15.40;65.00;;;;;;5049892;28;20784;-17
2023/02/10 09:43:50;;;;;;;4.00;3.70;;;15.40;65.00;;;;;;5047509;28;20053;-12
2023/02/10 09:46:27;;;;;;;3.92;3.67;;;15.40;65.00;;;;;;5048657;28;20517;-13
2023/02/10 09:49:06;;;;;;;4.03;3.83;;;15.40;64.90;;;;;;5036425;28;20068;-13
2023/02/10 09:51:58;;;;;;;4.00;3.70;;;15.50;64.80;;;;;;5036002;28;20176;-12
2023/02/10 09:54:24;;;;;;;3.80;3.50;;;15.40;64.80;;;;;;5048856;28;20036;-13
2023/02/10 09:56:49;;;;;;;4.13;3.90;;;15.40;64.70;;;;;;5051694;28;20039;-14
2023/02/10 09:59:18;;;;;;;3.72;3.53;;;15.40;64.70;;;;;;5050015;28;20047;-12
2023/02/10 10:01:51;;;;;;;4.05;3.75;;;15.40;64.70;;;;;;5053915;28;20439;-12
2023/02/10 10:04:17;;;;;;;3.97;3.67;;;15.40;64.60;;;;;;5036040;28;20139;-14
2023/02/10 10:06:49;;;;;;;3.50;3.30;;;15.50;64.50;;;;;;5048352;28;20057;-12
2023/02/10 10:09:20;;;;;;;3.80;3.50;;;15.50;64.40;;;;;;5047202;28;20842;-12
2023/02/10 10:11:47;;;;;;;3.90;3.70;;;15.50;64.60;;;;;;5052769;28;20120;-12
2023/02/10 10:14:29;;;;;;;3.35;3.13;;;15.40;65.30;;;;;;5048734;28;20770;-12
2023/02/10 10:17:31;;;;;;;3.67;3.47;;;15.50;64.40;;;;;;5051090;28;20490;-12
2023/02/10 10:20:34;;;;;;;3.97;3.67;;;15.50;64.40;;;;;;5046894;28;20037;-13
2023/02/10 10:23:18;;;;;;;3.90;3.70;;;15.50;64.50;;;;;;5047930;28;20171;-13
2023/02/10 10:26:12;;;;;;;3.77;3.47;;;15.50;64.50;;;;;;5048753;28;20044;-13
2023/02/10 10:29:18;;;;;;;3.60;3.40;;;15.40;64.50;;;;;;5047028;28;20135;-13
2023/02/10 10:31:44;;;;;;;4.07;3.78;;;15.50;64.50;;;;;;5048581;28;20095;-14
2023/02/10 10:34:17;;;;;;;4.13;3.78;;;15.50;64.40;;;;;;5047953;28;20135;-13
2023/02/10 10:36:47;;;;;;;3.85;3.65;;;15.50;64.40;;;;;;5047395;28;20040;-15
2023/02/10 10:39:34;;;;;;;3.88;3.67;;;15.60;64.20;;;;;;5049155;28;20189;-12
2023/02/10 10:42:01;;;;;;;3.88;3.67;;;15.60;64.10;;;;;;5036608;28;20048;-12
2023/02/10 10:44:29;;;;;;;4.40;4.10;;;15.50;64.30;;;;;;5026443;28;20064;-13
2023/02/10 10:47:13;;;;;;;3.70;3.50;;;15.50;64.30;;;;;;5047409;28;22052;-12
2023/02/10 10:49:39;;;;;;;3.45;3.25;;;15.60;64.80;;;;;;5030511;28;20129;-19
2023/02/10 10:52:33;;;;;;;4.97;3.08;;;15.60;64.40;;;;;;5045419;28;20101;-20
2023/02/10 10:54:58;;;;;;;3.50;3.30;;;15.50;64.80;;;;;;5041028;28;20037;-12
2023/02/10 10:57:25;;;;;;;3.63;3.42;;;15.60;64.50;;;;;;5046288;28;20293;-13
2023/02/10 11:00:28;;;;;;;4.15;3.85;;;15.80;64.30;;;;;;5045711;28;20041;-14
2023/02/10 11:02:58;;;;;;;3.50;3.25;;;15.60;64.60;;;;;;5007184;28;20029;-13
2023/02/10 11:05:35;;;;;;;4.10;3.90;;;15.60;64.90;;;;;;5047213;28;20068;-13
2023/02/10 11:08:01;;;;;;;3.55;3.25;;;15.70;64.90;;;;;;5047636;28;20484;-14
2023/02/10 11:10:26;;;;;;;3.33;3.13;;;15.70;64.70;;;;;;5044121;28;20136;-23
2023/02/10 11:12:52;;;;;;;3.42;3.22;;;15.60;64.90;;;;;;5046590;28;20586;-12
2023/02/10 11:15:38;;;;;;;2.92;2.83;;;15.60;65.50;;;;;;5042236;28;20045;-11
2023/02/10 11:18:05;;;;;;;3.53;3.33;;;15.60;65.30;;;;;;5046205;28;20052;-13
2023/02/10 11:20:32;;;;;;;6.32;5.68;;;15.60;65.40;;;;;;5059463;28;20053;-13
2023/02/10 11:23:03;;;;;;;19.50;13.10;;;15.60;65.70;;;;;;5046273;28;20514;-12
2023/02/10 11:25:30;;;;;;;27.25;18.27;;;15.50;65.50;;;;;;5044837;28;20055;-13
2023/02/10 11:27:56;;;;;;;44.50;28.30;;;15.60;65.60;;;;;;5042901;28;20059;-13
2023/02/10 11:30:27;;;;;;;50.80;31.17;;;15.60;65.60;;;;;;5044142;28;20053;-12
2023/02/10 11:32:53;;;;;;;58.88;37.80;;;15.70;65.50;;;;;;5047130;28;20051;-17
2023/02/10 11:35:18;;;;;;;57.47;35.60;;;15.60;65.70;;;;;;5049641;28;20040;-12
2023/02/10 11:37:46;;;;;;;53.65;32.80;;;15.70;65.60;;;;;;5045858;28;20082;-12
2023/02/10 11:40:17;;;;;;;61.28;35.75;;;15.70;65.60;;;;;;4344665;28;9999886;-13
2023/02/10 11:42:46;;;;;;;61.30;38.38;;;15.70;65.90;;;;;;5042826;28;20399;-15
2023/02/10 11:45:17;;;;;;;69.57;39.63;;;15.70;65.60;;;;;;5040325;28;20533;-13
2023/02/10 11:47:43;;;;;;;58.40;36.85;;;15.80;65.80;;;;;;5044877;28;20052;-13
2023/02/10 11:50:27;;;;;;;62.63;36.10;;;15.70;65.50;;;;;;5044549;28;20874;-19
2023/02/10 11:52:53;;;;;;;;;;;15.80;65.50;;;;;;5044636;28;20090;-13
2023/02/10 11:55:18;;;;;;;67.68;40.15;;;15.80;65.60;;;;;;5043615;28;19916;-12
2023/02/10 12:01:14;;;;;;;64.28;37.92;;;15.80;65.60;;;;;;5037211;28;20103;-21
2023/02/10 12:04:01;;;;;;;60.50;37.47;;;15.80;65.60;;;;;;5044705;28;20060;-21
2023/02/10 12:06:39;;;;;;;57.38;37.55;;;15.80;65.40;;;;;;5041921;28;20123;-13
2023/02/10 12:09:32;;;;;;;61.92;36.60;;;15.80;65.50;;;;;;5046107;28;20037;-15
2023/02/10 12:12:48;;;;;;;57.85;35.47;;;15.80;65.60;;;;;;5059342;28;20040;-14
2023/02/10 12:15:41;;;;;;;63.67;37.47;;;15.80;65.70;;;;;;5041716;28;20063;-13
2023/02/10 12:18:28;;;;;;;61.67;38.20;;;15.90;65.60;;;;;;5041188;28;20781;-13
2023/02/10 12:20:54;;;;;;;57.47;35.00;;;15.90;65.40;;;;;;5043006;28;20049;-14
2023/02/10 12:23:39;;;;;;;64.82;39.10;;;16.00;65.30;;;;;;5044753;28;20066;-13
2023/02/10 12:26:33;;;;;;;58.97;34.42;;;16.00;65.60;;;;;;5043146;28;20099;-16
2023/02/10 12:29:13;;;;;;;54.55;33.03;;;15.90;65.30;;;;;;5033635;28;20425;-13
2023/02/10 12:32:03;;;;;;;55.30;32.95;;;16.00;65.30;;;;;;5048227;28;20049;-14
2023/02/10 12:34:47;;;;;;;47.28;30.83;;;16.00;65.20;;;;;;5029211;28;20044;-21
2023/02/10 12:37:13;;;;;;;52.67;32.33;;;16.00;65.10;;;;;;5043701;28;20106;-18
2023/02/10 12:40:14;;;;;;;52.90;33.42;;;16.00;65.00;;;;;;5043150;28;20053;-20
2023/02/10 12:42:40;;;;;;;46.70;29.80;;;16.00;65.10;;;;;;5032387;28;20154;-20
2023/02/10 12:45:39;;;;;;;53.53;31.23;;;16.00;65.00;;;;;;5042514;28;20049;-15
2023/02/10 12:48:23;;;;;;;49.92;31.35;;;16.00;64.90;;;;;;5042797;28;20052;-14
2023/02/10 12:50:57;;;;;;;44.33;29.63;;;16.20;64.70;;;;;;5042822;28;20048;-13
2023/02/10 12:53:24;;;;;;;49.55;32.08;;;16.20;64.70;;;;;;5041645;28;20056;-14
2023/02/10 12:56:02;;;;;;;47.33;30.08;;;16.10;64.50;;;;;;5043223;28;20044;-14
2023/02/10 12:58:43;;;;;;;41.95;27.02;;;16.20;64.40;;;;;;5035372;28;20477;-14
2023/02/10 13:01:27;;;;;;;42.47;27.92;;;16.20;64.20;;;;;;5044577;28;20064;-13